sensor_id;sensor_type;location;lat;lon;timestamp;pressure;altitude;pressure_sealevel;temperature;humidity
60375;BME280;70244;48.792;9.172;2023-07-20T04:16:38;97508.88;;;26.47;44.70
60375;BME280;70244;48.792;9.172;2023-07-20T04:19:09;97514.78;;;26.59;44.65
60375;BME280;70244;48.792;9.172;2023-07-20T04:21:15;97516.01;;;26.72;44.54
60375;BME280;70244;48.792;9.172;2023-07-20T04:23:45;97515.95;;;26.59;44.79
60375;BME280;70244;48.792;9.172;2023-07-20T04:26:15;97515.65;;;26.72;45.41
60375;BME280;70244;48.792;9.172;2023-07-20T04:28:46;97514.54;;;26.66;44.95
60375;BME280;70244;48.792;9.172;2023-07-20T04:31:17;97516.26;;;26.88;44.71
60375;BME280;70244;48.792;9.172;2023-07-20T04:33:47;97517.47;;;27.03;44.30
60375;BME280;70244;48.792;9.172;2023-07-20T04:36:18;97516.85;;;27.00;44.57
60375;BME280;70244;48.792;9.172;2023-07-20T04:38:48;97517.22;;;27.23;43.97
60375;BME280;70244;48.792;9.172;2023-07-20T04:41:19;97518.23;;;27.05;44.19
60375;BME280;70244;48.792;9.172;2023-07-20T04:43:50;97519.10;;;27.09;44.91
60375;BME280;70244;48.792;9.172;2023-07-20T04:46:20;97522.29;;;27.25;44.26
60375;BME280;70244;48.792;9.172;2023-07-20T04:48:51;97518.17;;;27.22;44.82
60375;BME280;70244;48.792;9.172;2023-07-20T04:51:21;97516.76;;;27.33;43.88
60375;BME280;70244;48.792;9.172;2023-07-20T04:53:52;97516.50;;;27.51;44.23
60375;BME280;70244;48.792;9.172;2023-07-20T04:56:23;97518.81;;;27.41;44.63
60375;BME280;70244;48.792;9.172;2023-07-20T04:58:53;97518.38;;;27.65;44.13
60375;BME280;70244;48.792;9.172;2023-07-20T05:01:23;97518.75;;;27.77;43.50
60375;BME280;70244;48.792;9.172;2023-07-20T05:03:54;97526.87;;;27.97;42.90
60375;BME280;70244;48.792;9.172;2023-07-20T05:06:24;97526.52;;;27.77;43.25
60375;BME280;70244;48.792;9.172;2023-07-20T05:08:55;97528.84;;;27.91;43.38
60375;BME280;70244;48.792;9.172;2023-07-20T05:11:25;97528.82;;;27.89;43.92
60375;BME280;70244;48.792;9.172;2023-07-20T05:13:56;97527.54;;;28.16;42.86
60375;BME280;70244;48.792;9.172;2023-07-20T05:16:27;97524.68;;;27.67;43.46
60375;BME280;70244;48.792;9.172;2023-07-20T05:18:57;97521.03;;;27.67;43.51
60375;BME280;70244;48.792;9.172;2023-07-20T05:21:28;97521.10;;;27.65;43.85
60375;BME280;70244;48.792;9.172;2023-07-20T05:23:59;97524.10;;;28.13;42.95
60375;BME280;70244;48.792;9.172;2023-07-20T05:26:29;97519.59;;;28.27;44.19
60375;BME280;70244;48.792;9.172;2023-07-20T05:29:00;97518.57;;;28.53;43.74
60375;BME280;70244;48.792;9.172;2023-07-20T05:31:30;97520.00;;;28.50;43.75
60375;BME280;70244;48.792;9.172;2023-07-20T05:34:01;97516.70;;;28.71;42.29
60375;BME280;70244;48.792;9.172;2023-07-20T05:36:32;97517.20;;;28.56;43.73
60375;BME280;70244;48.792;9.172;2023-07-20T05:39:02;97515.45;;;28.52;43.88
60375;BME280;70244;48.792;9.172;2023-07-20T05:41:33;97514.58;;;28.54;43.65
60375;BME280;70244;48.792;9.172;2023-07-20T05:44:04;97513.15;;;28.44;43.08
60375;BME280;70244;48.792;9.172;2023-07-20T05:46:34;97512.38;;;28.43;41.78
60375;BME280;70244;48.792;9.172;2023-07-20T05:49:05;97515.24;;;28.59;42.23
60375;BME280;70244;48.792;9.172;2023-07-20T05:51:35;97514.07;;;28.70;41.63
60375;BME280;70244;48.792;9.172;2023-07-20T05:54:05;97514.17;;;28.84;41.93
60375;BME280;70244;48.792;9.172;2023-07-20T05:56:36;97513.06;;;29.07;40.46
60375;BME280;70244;48.792;9.172;2023-07-20T05:59:07;97514.00;;;29.08;40.64
60375;BME280;70244;48.792;9.172;2023-07-20T06:01:37;97517.87;;;29.19;40.26
60375;BME280;70244;48.792;9.172;2023-07-20T06:04:07;97514.97;;;28.98;40.57
60375;BME280;70244;48.792;9.172;2023-07-20T06:06:38;97516.18;;;29.42;39.98
60375;BME280;70244;48.792;9.172;2023-07-20T06:09:08;97517.21;;;29.44;39.90
60375;BME280;70244;48.792;9.172;2023-07-20T06:11:39;97519.64;;;29.50;39.71
60375;BME280;70244;48.792;9.172;2023-07-20T06:14:10;97519.62;;;29.52;39.21
60375;BME280;70244;48.792;9.172;2023-07-20T06:16:40;97521.66;;;29.48;39.48
60375;BME280;70244;48.792;9.172;2023-07-20T06:19:11;97526.62;;;29.44;39.23
60375;BME280;70244;48.792;9.172;2023-07-20T06:21:41;97522.19;;;29.44;39.44
60375;BME280;70244;48.792;9.172;2023-07-20T06:24:12;97524.01;;;29.27;39.63
60375;BME280;70244;48.792;9.172;2023-07-20T06:26:43;97523.16;;;29.33;39.34
60375;BME280;70244;48.792;9.172;2023-07-20T06:29:13;97523.34;;;29.34;39.27
60375;BME280;70244;48.792;9.172;2023-07-20T06:31:44;97522.94;;;29.47;38.95
60375;BME280;70244;48.792;9.172;2023-07-20T06:34:14;97525.98;;;29.44;39.18
60375;BME280;70244;48.792;9.172;2023-07-20T06:36:45;97522.58;;;29.69;39.03
60375;BME280;70244;48.792;9.172;2023-07-20T06:39:16;97525.50;;;29.75;38.87
60375;BME280;70244;48.792;9.172;2023-07-20T06:41:46;97519.94;;;29.38;40.22
60375;BME280;70244;48.792;9.172;2023-07-20T06:44:17;97522.70;;;29.34;40.20
60375;BME280;70244;48.792;9.172;2023-07-20T06:46:48;97522.41;;;29.15;41.27
60375;BME280;70244;48.792;9.172;2023-07-20T06:49:24;97523.17;;;29.59;39.75
60375;BME280;70244;48.792;9.172;2023-07-20T06:51:49;97521.26;;;29.58;39.82
60375;BME280;70244;48.792;9.172;2023-07-20T06:54:19;97521.93;;;29.65;39.44
60375;BME280;70244;48.792;9.172;2023-07-20T06:56:50;97518.92;;;28.71;41.34
60375;BME280;70244;48.792;9.172;2023-07-20T06:59:20;97517.26;;;29.31;39.95
60375;BME280;70244;48.792;9.172;2023-07-20T07:01:51;97519.07;;;29.38;40.05
60375;BME280;70244;48.792;9.172;2023-07-20T07:04:22;97515.97;;;29.45;40.09
60375;BME280;70244;48.792;9.172;2023-07-20T07:06:52;97517.18;;;29.50;39.93
60375;BME280;70244;48.792;9.172;2023-07-20T07:09:23;97515.79;;;29.78;39.13
60375;BME280;70244;48.792;9.172;2023-07-20T07:11:54;97516.55;;;29.67;39.34
60375;BME280;70244;48.792;9.172;2023-07-20T07:14:24;97515.52;;;29.70;39.70
60375;BME280;70244;48.792;9.172;2023-07-20T07:16:55;97511.11;;;29.54;39.62
60375;BME280;70244;48.792;9.172;2023-07-20T07:19:25;97511.45;;;29.35;39.91
60375;BME280;70244;48.792;9.172;2023-07-20T07:21:56;97509.93;;;28.97;40.34
60375;BME280;70244;48.792;9.172;2023-07-20T07:24:27;97514.20;;;29.38;39.59
60375;BME280;70244;48.792;9.172;2023-07-20T07:26:57;97508.13;;;29.57;39.60
60375;BME280;70244;48.792;9.172;2023-07-20T07:29:28;97510.58;;;29.81;39.25
60375;BME280;70244;48.792;9.172;2023-07-20T07:31:59;97512.57;;;29.80;38.94
60375;BME280;70244;48.792;9.172;2023-07-20T07:34:29;97506.03;;;29.62;39.58
60375;BME280;70244;48.792;9.172;2023-07-20T07:37:00;97509.31;;;29.57;39.88
60375;BME280;70244;48.792;9.172;2023-07-20T07:39:30;97506.76;;;29.79;39.32
60375;BME280;70244;48.792;9.172;2023-07-20T07:42:01;97505.53;;;29.78;39.80
60375;BME280;70244;48.792;9.172;2023-07-20T07:44:32;97509.45;;;29.92;39.11
60375;BME280;70244;48.792;9.172;2023-07-20T07:47:02;97508.03;;;29.72;39.64
60375;BME280;70244;48.792;9.172;2023-07-20T07:49:33;97506.82;;;29.94;39.09
60375;BME280;70244;48.792;9.172;2023-07-20T07:52:04;97503.50;;;29.62;40.11
60375;BME280;70244;48.792;9.172;2023-07-20T07:54:34;97502.33;;;30.21;38.82
60375;BME280;70244;48.792;9.172;2023-07-20T07:57:05;97504.45;;;29.75;39.41
60375;BME280;70244;48.792;9.172;2023-07-20T07:59:35;97502.76;;;29.91;38.83
60375;BME280;70244;48.792;9.172;2023-07-20T08:02:05;97503.58;;;29.72;39.16
60375;BME280;70244;48.792;9.172;2023-07-20T08:04:36;97500.30;;;29.72;39.17
60375;BME280;70244;48.792;9.172;2023-07-20T08:07:06;97501.06;;;29.89;39.05
60375;BME280;70244;48.792;9.172;2023-07-20T08:09:37;97501.43;;;29.66;39.40
60375;BME280;70244;48.792;9.172;2023-07-20T08:12:08;97499.23;;;30.03;38.62
60375;BME280;70244;48.792;9.172;2023-07-20T08:14:38;97500.88;;;29.60;39.63
60375;BME280;70244;48.792;9.172;2023-07-20T08:17:09;97498.40;;;29.32;39.80
60375;BME280;70244;48.792;9.172;2023-07-20T08:19:39;97497.48;;;29.81;38.66
60375;BME280;70244;48.792;9.172;2023-07-20T08:22:10;97495.29;;;29.07;39.77
60375;BME280;70244;48.792;9.172;2023-07-20T08:24:41;97499.27;;;29.49;39.08
60375;BME280;70244;48.792;9.172;2023-07-20T08:27:11;97500.84;;;28.90;39.79
60375;BME280;70244;48.792;9.172;2023-07-20T08:29:42;97502.85;;;29.37;38.83
60375;BME280;70244;48.792;9.172;2023-07-20T08:32:13;97496.01;;;29.26;39.48
60375;BME280;70244;48.792;9.172;2023-07-20T08:34:43;97501.20;;;29.52;39.17
60375;BME280;70244;48.792;9.172;2023-07-20T08:37:14;97502.75;;;29.59;38.84
60375;BME280;70244;48.792;9.172;2023-07-20T08:39:44;97505.24;;;29.20;39.91
60375;BME280;70244;48.792;9.172;2023-07-20T08:42:16;97501.94;;;29.31;39.59
60375;BME280;70244;48.792;9.172;2023-07-20T08:44:48;97500.61;;;29.61;39.44
60375;BME280;70244;48.792;9.172;2023-07-20T08:47:16;97500.93;;;29.79;39.03
60375;BME280;70244;48.792;9.172;2023-07-20T08:49:48;97496.89;;;29.64;39.29
60375;BME280;70244;48.792;9.172;2023-07-20T08:52:17;97497.59;;;29.66;39.92
60375;BME280;70244;48.792;9.172;2023-07-20T08:54:48;97498.19;;;29.75;39.90
60375;BME280;70244;48.792;9.172;2023-07-20T08:57:19;97499.76;;;29.93;39.13
60375;BME280;70244;48.792;9.172;2023-07-20T08:59:50;97500.87;;;29.11;39.91
60375;BME280;70244;48.792;9.172;2023-07-20T09:02:22;97498.42;;;29.42;38.94
60375;BME280;70244;48.792;9.172;2023-07-20T09:04:50;97494.11;;;29.34;39.44
60375;BME280;70244;48.792;9.172;2023-07-20T09:07:22;97496.07;;;29.58;38.75
60375;BME280;70244;48.792;9.172;2023-07-20T09:09:51;97488.77;;;29.81;38.60
60375;BME280;70244;48.792;9.172;2023-07-20T09:12:22;97489.74;;;29.78;38.70
60375;BME280;70244;48.792;9.172;2023-07-20T09:14:52;97493.00;;;29.79;38.71
60375;BME280;70244;48.792;9.172;2023-07-20T09:17:25;97489.66;;;29.77;38.78
60375;BME280;70244;48.792;9.172;2023-07-20T09:19:54;97489.93;;;29.98;37.24
60375;BME280;70244;48.792;9.172;2023-07-20T09:22:30;97488.01;;;29.13;39.05
60375;BME280;70244;48.792;9.172;2023-07-20T09:24:55;97486.47;;;29.30;38.55
60375;BME280;70244;48.792;9.172;2023-07-20T09:27:34;97485.79;;;29.78;37.93
60375;BME280;70244;48.792;9.172;2023-07-20T09:29:56;97489.39;;;29.70;38.14
60375;BME280;70244;48.792;9.172;2023-07-20T09:32:27;97491.03;;;29.72;38.48
60375;BME280;70244;48.792;9.172;2023-07-20T09:34:57;97491.31;;;29.67;38.60
60375;BME280;70244;48.792;9.172;2023-07-20T09:37:28;97489.33;;;29.70;38.17
60375;BME280;70244;48.792;9.172;2023-07-20T09:39:59;97487.88;;;29.58;39.13
60375;BME280;70244;48.792;9.172;2023-07-20T09:42:29;97484.10;;;29.53;39.43
60375;BME280;70244;48.792;9.172;2023-07-20T09:45:00;97485.40;;;29.87;38.82
60375;BME280;70244;48.792;9.172;2023-07-20T09:47:30;97479.26;;;29.78;38.65
60375;BME280;70244;48.792;9.172;2023-07-20T09:50:01;97478.88;;;29.30;38.73
60375;BME280;70244;48.792;9.172;2023-07-20T09:52:32;97478.85;;;29.66;38.88
60375;BME280;70244;48.792;9.172;2023-07-20T09:55:03;97479.71;;;29.33;38.84
60375;BME280;70244;48.792;9.172;2023-07-20T09:57:33;97478.38;;;29.60;38.36
60375;BME280;70244;48.792;9.172;2023-07-20T10:00:06;97474.47;;;29.05;38.99
60375;BME280;70244;48.792;9.172;2023-07-20T10:02:38;97477.48;;;29.22;38.67
60375;BME280;70244;48.792;9.172;2023-07-20T10:05:06;97476.24;;;29.80;37.19
60375;BME280;70244;48.792;9.172;2023-07-20T10:07:36;97475.18;;;29.77;37.29
60375;BME280;70244;48.792;9.172;2023-07-20T10:10:07;97471.27;;;29.30;37.65
60375;BME280;70244;48.792;9.172;2023-07-20T10:12:37;97471.01;;;29.64;37.42
60375;BME280;70244;48.792;9.172;2023-07-20T10:15:12;97470.61;;;28.96;38.18
60375;BME280;70244;48.792;9.172;2023-07-20T10:17:47;97468.45;;;29.45;37.86
60375;BME280;70244;48.792;9.172;2023-07-20T10:20:10;97464.96;;;29.27;38.09
60375;BME280;70244;48.792;9.172;2023-07-20T10:22:40;97460.75;;;29.66;37.13
60375;BME280;70244;48.792;9.172;2023-07-20T10:25:10;97456.87;;;29.53;38.20
60375;BME280;70244;48.792;9.172;2023-07-20T10:27:40;97457.47;;;29.88;37.50
60375;BME280;70244;48.792;9.172;2023-07-20T10:30:11;97453.62;;;29.04;38.87
60375;BME280;70244;48.792;9.172;2023-07-20T10:32:42;97440.70;;;29.91;37.30
60375;BME280;70244;48.792;9.172;2023-07-20T10:35:14;97453.83;;;29.45;38.56
60375;BME280;70244;48.792;9.172;2023-07-20T10:37:50;97443.74;;;29.85;36.57
60375;BME280;70244;48.792;9.172;2023-07-20T10:42:47;97448.83;;;29.09;37.69
60375;BME280;70244;48.792;9.172;2023-07-20T10:45:15;97442.69;;;29.85;36.08
60375;BME280;70244;48.792;9.172;2023-07-20T10:47:46;97439.17;;;29.04;37.59
60375;BME280;70244;48.792;9.172;2023-07-20T10:50:16;97434.78;;;29.88;36.22
60375;BME280;70244;48.792;9.172;2023-07-20T10:55:17;97435.06;;;29.84;37.49
60375;BME280;70244;48.792;9.172;2023-07-20T11:00:19;97425.01;;;29.99;36.60
60375;BME280;70244;48.792;9.172;2023-07-20T11:02:49;97428.64;;;29.86;36.83
60375;BME280;70244;48.792;9.172;2023-07-20T11:05:32;97429.28;;;29.88;37.62
60375;BME280;70244;48.792;9.172;2023-07-20T11:07:50;97423.97;;;29.96;37.55
60375;BME280;70244;48.792;9.172;2023-07-20T11:10:21;97426.14;;;29.55;37.42
60375;BME280;70244;48.792;9.172;2023-07-20T11:15:22;97430.35;;;29.88;36.18
60375;BME280;70244;48.792;9.172;2023-07-20T11:17:53;97430.20;;;30.13;35.29
60375;BME280;70244;48.792;9.172;2023-07-20T11:20:25;97422.91;;;29.80;36.61
60375;BME280;70244;48.792;9.172;2023-07-20T11:22:54;97434.24;;;29.51;37.08
60375;BME280;70244;48.792;9.172;2023-07-20T11:25:24;97431.13;;;30.10;35.13
60375;BME280;70244;48.792;9.172;2023-07-20T11:27:55;97426.93;;;29.89;36.24
60375;BME280;70244;48.792;9.172;2023-07-20T11:30:25;97420.38;;;29.60;36.90
60375;BME280;70244;48.792;9.172;2023-07-20T11:32:56;97417.40;;;29.43;37.70
60375;BME280;70244;48.792;9.172;2023-07-20T11:35:27;97417.24;;;29.87;36.85
60375;BME280;70244;48.792;9.172;2023-07-20T11:37:57;97417.64;;;29.37;36.45
60375;BME280;70244;48.792;9.172;2023-07-20T11:40:28;97419.95;;;29.19;36.72
60375;BME280;70244;48.792;9.172;2023-07-20T11:42:59;97419.89;;;29.71;35.97
60375;BME280;70244;48.792;9.172;2023-07-20T11:45:29;97417.02;;;29.48;35.91
60375;BME280;70244;48.792;9.172;2023-07-20T11:48:00;97410.94;;;29.70;35.64
60375;BME280;70244;48.792;9.172;2023-07-20T11:50:31;97409.70;;;29.65;35.93
60375;BME280;70244;48.792;9.172;2023-07-20T11:53:01;97403.34;;;29.84;36.02
60375;BME280;70244;48.792;9.172;2023-07-20T11:55:32;97405.41;;;30.02;35.25
60375;BME280;70244;48.792;9.172;2023-07-20T11:58:03;97400.93;;;29.91;34.93
60375;BME280;70244;48.792;9.172;2023-07-20T12:00:34;97401.56;;;29.58;36.00
60375;BME280;70244;48.792;9.172;2023-07-20T12:03:06;97397.18;;;30.27;32.94
60375;BME280;70244;48.792;9.172;2023-07-20T12:05:34;97392.54;;;29.97;34.66
60375;BME280;70244;48.792;9.172;2023-07-20T12:08:05;97389.16;;;29.57;35.46
60375;BME280;70244;48.792;9.172;2023-07-20T12:10:39;97392.42;;;30.15;33.66
60375;BME280;70244;48.792;9.172;2023-07-20T12:13:06;97393.90;;;29.38;34.54
60375;BME280;70244;48.792;9.172;2023-07-20T12:15:37;97388.25;;;29.92;33.17
60375;BME280;70244;48.792;9.172;2023-07-20T12:18:08;97390.79;;;30.02;34.49
60375;BME280;70244;48.792;9.172;2023-07-20T12:20:38;97389.32;;;30.11;34.00
60375;BME280;70244;48.792;9.172;2023-07-20T12:23:10;97390.24;;;30.01;34.18
60375;BME280;70244;48.792;9.172;2023-07-20T12:25:40;97378.59;;;29.96;35.27
60375;BME280;70244;48.792;9.172;2023-07-20T12:28:12;97378.54;;;29.95;35.72
60375;BME280;70244;48.792;9.172;2023-07-20T13:18:33;97325.15;;;28.80;35.24
60375;BME280;70244;48.792;9.172;2023-07-20T13:20:53;97324.31;;;29.52;33.46
60375;BME280;70244;48.792;9.172;2023-07-20T13:23:23;97325.51;;;29.14;33.25
60375;BME280;70244;48.792;9.172;2023-07-20T13:25:54;97325.85;;;29.85;32.01
60375;BME280;70244;48.792;9.172;2023-07-20T13:28:24;97324.24;;;29.29;32.89
60375;BME280;70244;48.792;9.172;2023-07-20T13:30:55;97327.53;;;30.02;31.88
60375;BME280;70244;48.792;9.172;2023-07-20T13:33:26;97328.08;;;28.96;33.45
60375;BME280;70244;48.792;9.172;2023-07-20T13:35:56;97329.22;;;29.96;32.41
60375;BME280;70244;48.792;9.172;2023-07-20T13:38:27;97323.27;;;30.09;32.17
60375;BME280;70244;48.792;9.172;2023-07-20T13:40:58;97326.62;;;29.65;33.32
60375;BME280;70244;48.792;9.172;2023-07-20T13:43:28;97330.55;;;29.51;33.41
60375;BME280;70244;48.792;9.172;2023-07-20T13:45:59;97321.07;;;29.31;33.11
60375;BME280;70244;48.792;9.172;2023-07-20T13:48:29;97325.47;;;29.90;32.58
60375;BME280;70244;48.792;9.172;2023-07-20T13:51:00;97319.15;;;30.08;32.87
60375;BME280;70244;48.792;9.172;2023-07-20T13:53:30;97319.84;;;29.99;32.87
60375;BME280;70244;48.792;9.172;2023-07-20T13:56:01;97316.93;;;30.18;32.73
60375;BME280;70244;48.792;9.172;2023-07-20T13:58:32;97310.90;;;30.07;33.21
60375;BME280;70244;48.792;9.172;2023-07-20T14:01:02;97308.02;;;30.23;32.30
60375;BME280;70244;48.792;9.172;2023-07-20T14:03:32;97300.57;;;30.28;32.51
60375;BME280;70244;48.792;9.172;2023-07-20T14:06:03;97299.77;;;30.20;33.31
60375;BME280;70244;48.792;9.172;2023-07-20T14:08:34;97299.69;;;29.99;34.02
60375;BME280;70244;48.792;9.172;2023-07-20T14:11:04;97302.78;;;29.99;33.43
60375;BME280;70244;48.792;9.172;2023-07-20T14:13:35;97293.66;;;29.97;34.36
60375;BME280;70244;48.792;9.172;2023-07-20T14:16:05;97289.97;;;30.09;33.99
60375;BME280;70244;48.792;9.172;2023-07-20T14:18:36;97281.97;;;30.07;34.04
60375;BME280;70244;48.792;9.172;2023-07-20T14:21:06;97287.69;;;30.30;33.22
60375;BME280;70244;48.792;9.172;2023-07-20T14:23:36;97284.20;;;29.89;34.70
60375;BME280;70244;48.792;9.172;2023-07-20T14:26:07;97284.70;;;29.53;34.39
60375;BME280;70244;48.792;9.172;2023-07-20T14:28:38;97283.63;;;29.62;34.28
60375;BME280;70244;48.792;9.172;2023-07-20T14:31:08;97287.05;;;29.18;34.89
60375;BME280;70244;48.792;9.172;2023-07-20T14:33:39;97285.43;;;30.17;33.14
60375;BME280;70244;48.792;9.172;2023-07-20T14:36:09;97284.57;;;30.18;33.89
60375;BME280;70244;48.792;9.172;2023-07-20T14:38:40;97275.25;;;29.83;34.01
60375;BME280;70244;48.792;9.172;2023-07-20T14:41:10;97272.71;;;30.30;32.77
60375;BME280;70244;48.792;9.172;2023-07-20T14:43:41;97276.01;;;30.45;32.55
60375;BME280;70244;48.792;9.172;2023-07-20T14:46:11;97271.52;;;30.15;33.34
60375;BME280;70244;48.792;9.172;2023-07-20T14:48:42;97276.27;;;29.99;33.84
60375;BME280;70244;48.792;9.172;2023-07-20T14:51:13;97272.61;;;30.08;34.35
60375;BME280;70244;48.792;9.172;2023-07-20T14:53:43;97271.53;;;30.34;33.55
60375;BME280;70244;48.792;9.172;2023-07-20T14:56:14;97274.20;;;30.32;34.15
60375;BME280;70244;48.792;9.172;2023-07-20T14:58:45;97271.00;;;30.01;33.86
60375;BME280;70244;48.792;9.172;2023-07-20T15:01:15;97274.98;;;30.05;35.37
60375;BME280;70244;48.792;9.172;2023-07-20T15:03:46;97267.35;;;30.25;34.19
60375;BME280;70244;48.792;9.172;2023-07-20T15:06:16;97271.08;;;30.21;34.00
60375;BME280;70244;48.792;9.172;2023-07-20T15:08:47;97270.18;;;30.21;34.71
60375;BME280;70244;48.792;9.172;2023-07-20T15:11:18;97267.35;;;30.38;33.74
60375;BME280;70244;48.792;9.172;2023-07-20T15:13:48;97267.31;;;29.91;34.28
60375;BME280;70244;48.792;9.172;2023-07-20T15:16:19;97261.58;;;30.24;34.10
60375;BME280;70244;48.792;9.172;2023-07-20T15:18:49;97257.50;;;29.83;34.72
60375;BME280;70244;48.792;9.172;2023-07-20T15:21:20;97254.65;;;30.02;34.80
60375;BME280;70244;48.792;9.172;2023-07-20T15:23:50;97256.50;;;30.04;34.51
60375;BME280;70244;48.792;9.172;2023-07-20T15:26:21;97253.56;;;30.32;33.61
60375;BME280;70244;48.792;9.172;2023-07-20T15:28:52;97247.44;;;30.14;34.09
60375;BME280;70244;48.792;9.172;2023-07-20T15:31:22;97247.00;;;29.70;35.04
60375;BME280;70244;48.792;9.172;2023-07-20T15:33:52;97243.71;;;30.19;34.33
60375;BME280;70244;48.792;9.172;2023-07-20T15:36:23;97244.03;;;29.88;33.93
60375;BME280;70244;48.792;9.172;2023-07-20T15:38:54;97237.53;;;30.27;33.67
60375;BME280;70244;48.792;9.172;2023-07-20T15:41:24;97238.22;;;30.24;34.33
60375;BME280;70244;48.792;9.172;2023-07-20T15:43:55;97238.66;;;30.42;33.57
60375;BME280;70244;48.792;9.172;2023-07-20T15:48:56;97228.75;;;29.83;33.56
60375;BME280;70244;48.792;9.172;2023-07-20T15:51:27;97225.99;;;29.71;33.77
60375;BME280;70244;48.792;9.172;2023-07-20T15:53:57;97224.35;;;30.02;33.92
60375;BME280;70244;48.792;9.172;2023-07-20T15:56:28;97221.78;;;30.15;33.79
60375;BME280;70244;48.792;9.172;2023-07-20T15:58:59;97225.61;;;30.22;34.15
60375;BME280;70244;48.792;9.172;2023-07-20T16:01:30;97220.08;;;29.96;34.14
60375;BME280;70244;48.792;9.172;2023-07-20T16:04:00;97218.29;;;29.69;34.71
60375;BME280;70244;48.792;9.172;2023-07-20T16:06:31;97217.39;;;30.29;33.65
60375;BME280;70244;48.792;9.172;2023-07-20T16:09:01;97215.25;;;29.84;34.02
60375;BME280;70244;48.792;9.172;2023-07-20T16:11:32;97216.62;;;30.25;33.54
60375;BME280;70244;48.792;9.172;2023-07-20T16:14:02;97210.25;;;29.74;34.67
60375;BME280;70244;48.792;9.172;2023-07-20T16:16:34;97210.57;;;29.78;34.36
60375;BME280;70244;48.792;9.172;2023-07-20T16:19:03;97210.71;;;29.93;34.02
60375;BME280;70244;48.792;9.172;2023-07-20T16:21:34;97211.27;;;30.33;33.55
60375;BME280;70244;48.792;9.172;2023-07-20T16:24:05;97207.57;;;30.64;33.70
60375;BME280;70244;48.792;9.172;2023-07-20T16:26:35;97210.18;;;30.54;34.37
60375;BME280;70244;48.792;9.172;2023-07-20T16:29:06;97209.55;;;30.91;33.50
60375;BME280;70244;48.792;9.172;2023-07-20T16:31:36;97210.24;;;29.61;36.33
60375;BME280;70244;48.792;9.172;2023-07-20T16:34:07;97207.51;;;29.69;35.17
60375;BME280;70244;48.792;9.172;2023-07-20T16:36:37;97202.63;;;29.14;37.10
60375;BME280;70244;48.792;9.172;2023-07-20T16:39:08;97202.04;;;29.15;37.10
60375;BME280;70244;48.792;9.172;2023-07-20T16:41:38;97204.07;;;29.31;36.85
60375;BME280;70244;48.792;9.172;2023-07-20T16:44:09;97201.46;;;28.63;38.94
60375;BME280;70244;48.792;9.172;2023-07-20T16:46:39;97200.36;;;29.41;36.70
60375;BME280;70244;48.792;9.172;2023-07-20T16:49:10;97200.95;;;28.73;38.89
60375;BME280;70244;48.792;9.172;2023-07-20T16:51:40;97199.78;;;28.75;37.25
60375;BME280;70244;48.792;9.172;2023-07-20T16:54:11;97196.26;;;28.92;35.46
60375;BME280;70244;48.792;9.172;2023-07-20T16:56:42;97200.47;;;29.44;36.60
60375;BME280;70244;48.792;9.172;2023-07-20T16:59:12;97198.86;;;29.71;35.44
60375;BME280;70244;48.792;9.172;2023-07-20T17:01:43;97202.54;;;29.42;36.74
60375;BME280;70244;48.792;9.172;2023-07-20T17:04:13;97201.53;;;29.99;36.44
60375;BME280;70244;48.792;9.172;2023-07-20T17:06:44;97198.28;;;29.85;36.38
60375;BME280;70244;48.792;9.172;2023-07-20T17:09:15;97199.56;;;30.19;37.49
60375;BME280;70244;48.792;9.172;2023-07-20T17:11:45;97195.25;;;30.54;35.20
60375;BME280;70244;48.792;9.172;2023-07-20T17:14:16;97199.57;;;29.84;37.19
60375;BME280;70244;48.792;9.172;2023-07-20T17:16:46;97194.82;;;30.78;33.28
60375;BME280;70244;48.792;9.172;2023-07-20T17:19:17;97195.34;;;30.96;32.57
60375;BME280;70244;48.792;9.172;2023-07-20T17:21:47;97196.36;;;31.00;33.33
60375;BME280;70244;48.792;9.172;2023-07-20T17:24:17;97194.60;;;31.24;32.34
60375;BME280;70244;48.792;9.172;2023-07-20T17:26:48;97194.29;;;31.01;33.22
60375;BME280;70244;48.792;9.172;2023-07-20T17:29:19;97196.10;;;30.89;31.48
60375;BME280;70244;48.792;9.172;2023-07-20T17:31:49;97194.76;;;31.08;30.87
60375;BME280;70244;48.792;9.172;2023-07-20T17:34:19;97192.28;;;31.06;30.87
60375;BME280;70244;48.792;9.172;2023-07-20T17:36:49;97198.38;;;31.07;30.65
60375;BME280;70244;48.792;9.172;2023-07-20T17:39:20;97198.16;;;30.98;29.90
60375;BME280;70244;48.792;9.172;2023-07-20T17:41:50;97196.78;;;31.13;29.18
60375;BME280;70244;48.792;9.172;2023-07-20T17:44:20;97198.66;;;30.91;30.04
60375;BME280;70244;48.792;9.172;2023-07-20T17:46:51;97197.29;;;30.67;31.37
60375;BME280;70244;48.792;9.172;2023-07-20T17:49:21;97199.48;;;30.88;29.48
60375;BME280;70244;48.792;9.172;2023-07-20T17:51:51;97199.76;;;30.69;31.18
60375;BME280;70244;48.792;9.172;2023-07-20T17:54:22;97208.48;;;30.16;31.67
60375;BME280;70244;48.792;9.172;2023-07-20T17:56:52;97206.63;;;30.06;32.47
60375;BME280;70244;48.792;9.172;2023-07-20T17:59:22;97208.32;;;30.44;32.14
60375;BME280;70244;48.792;9.172;2023-07-20T18:01:53;97202.11;;;30.68;30.54
60375;BME280;70244;48.792;9.172;2023-07-20T18:04:23;97200.66;;;30.52;31.02
60375;BME280;70244;48.792;9.172;2023-07-20T18:06:54;97202.21;;;30.57;31.03
60375;BME280;70244;48.792;9.172;2023-07-20T18:09:25;97209.65;;;30.31;31.51
60375;BME280;70244;48.792;9.172;2023-07-20T18:11:55;97206.09;;;30.13;32.16
60375;BME280;70244;48.792;9.172;2023-07-20T18:14:26;97203.91;;;30.31;31.73
60375;BME280;70244;48.792;9.172;2023-07-20T18:16:56;97198.04;;;30.16;32.03
60375;BME280;70244;48.792;9.172;2023-07-20T18:19:26;97196.01;;;29.92;32.78
60375;BME280;70244;48.792;9.172;2023-07-20T18:21:57;97195.28;;;29.71;33.80
60375;BME280;70244;48.792;9.172;2023-07-20T18:24:27;97193.58;;;30.36;32.40
60375;BME280;70244;48.792;9.172;2023-07-20T18:26:57;97191.74;;;30.65;31.43
60375;BME280;70244;48.792;9.172;2023-07-20T18:29:29;97192.44;;;30.62;30.86
60375;BME280;70244;48.792;9.172;2023-07-20T18:31:59;97195.78;;;30.46;31.64